createdAt,value
2018-01-08T00:00:07.951Z,14.95
2018-01-08T00:02:35.614Z,14.98
2018-01-08T00:05:03.208Z,13.82
2018-01-08T00:07:30.858Z,13.40
2018-01-08T00:09:58.476Z,16.15
2018-01-08T00:12:26.100Z,16.25
2018-01-08T00:14:53.731Z,16.05
2018-01-08T00:17:21.394Z,16.25
2018-01-08T00:19:49.035Z,16.37
2018-01-08T00:22:16.656Z,16.10
2018-01-08T00:24:45.033Z,16.65
2018-01-08T00:27:12.612Z,16.27
2018-01-08T00:29:40.269Z,16.55
2018-01-08T00:32:07.901Z,17.90
2018-01-08T00:34:35.478Z,14.98
2018-01-08T00:37:03.147Z,16.30
2018-01-08T00:39:30.705Z,19.85
2018-01-08T00:41:58.287Z,18.02
2018-01-08T00:44:25.888Z,17.05
2018-01-08T00:46:53.586Z,17.95
2018-01-08T00:49:21.169Z,18.83
2018-01-08T00:51:49.501Z,19.00
2018-01-08T00:54:17.167Z,17.17
2018-01-08T00:56:44.758Z,17.48
2018-01-08T00:59:12.393Z,15.80
2018-01-08T01:01:40.121Z,18.23
2018-01-08T01:04:07.735Z,17.33
2018-01-08T01:06:35.306Z,20.05
2018-01-08T01:09:03.694Z,18.75
2018-01-08T01:11:31.339Z,19.85
2018-01-08T01:13:58.904Z,15.20
2018-01-08T01:16:26.492Z,19.62
2018-01-08T01:18:54.890Z,19.17
2018-01-08T01:21:22.528Z,21.23
2018-01-08T01:23:50.938Z,18.73
2018-01-08T01:26:18.562Z,19.05
2018-01-08T01:28:46.899Z,17.90
2018-01-08T01:31:14.523Z,19.52
2018-01-08T01:33:42.159Z,19.10
2018-01-08T01:36:09.802Z,20.88
2018-01-08T01:38:37.409Z,19.12
2018-01-08T01:41:05.017Z,18.83
2018-01-08T01:43:32.602Z,18.67
2018-01-08T01:46:00.189Z,18.98
2018-01-08T01:48:27.929Z,19.50
2018-01-08T01:50:56.283Z,18.85
2018-01-08T01:53:23.845Z,21.08
2018-01-08T01:55:52.261Z,18.70
2018-01-08T01:58:19.837Z,19.67
2018-01-08T02:00:47.443Z,19.87
2018-01-08T02:03:15.053Z,19.00
2018-01-08T02:05:42.705Z,20.27
2018-01-08T02:08:10.333Z,20.10
2018-01-08T02:10:37.902Z,20.27
2018-01-08T02:13:05.522Z,20.08
2018-01-08T02:15:33.172Z,20.23
2018-01-08T02:18:00.790Z,20.62
2018-01-08T02:20:28.430Z,19.73
2018-01-08T02:22:56.013Z,18.12
2018-01-08T02:25:23.610Z,21.00
2018-01-08T02:27:51.256Z,19.25
2018-01-08T02:30:19.588Z,19.55
2018-01-08T02:32:47.166Z,20.50
2018-01-08T02:35:14.778Z,22.48
2018-01-08T02:37:42.392Z,18.65
2018-01-08T02:40:10.025Z,18.55
2018-01-08T02:42:37.702Z,19.20
2018-01-08T02:45:05.314Z,19.33
2018-01-08T02:47:33.002Z,19.17
2018-01-08T02:50:00.603Z,21.50
2018-01-08T02:52:28.177Z,22.00
2018-01-08T02:54:55.789Z,21.30
2018-01-08T02:57:23.360Z,20.33
2018-01-08T02:59:51.008Z,20.17
2018-01-08T03:02:18.572Z,20.37
2018-01-08T03:04:46.169Z,19.95
2018-01-08T03:07:13.794Z,21.52
2018-01-08T03:09:41.393Z,21.80
2018-01-08T03:12:08.975Z,20.35
2018-01-08T03:14:37.363Z,19.10
2018-01-08T03:17:05.741Z,19.65
2018-01-08T03:19:34.081Z,20.10
2018-01-08T03:22:01.817Z,21.48
2018-01-08T03:24:29.411Z,20.05
2018-01-08T03:26:57.020Z,19.55
2018-01-08T03:29:24.614Z,20.80
2018-01-08T03:31:52.206Z,20.25
2018-01-08T03:34:19.830Z,20.92
2018-01-08T03:36:47.454Z,20.65
2018-01-08T03:39:15.787Z,21.77
2018-01-08T03:41:43.414Z,18.87
2018-01-08T03:44:10.978Z,20.37
2018-01-08T03:46:38.605Z,21.02
2018-01-08T03:49:06.249Z,19.80
2018-01-08T03:51:33.895Z,19.77
2018-01-08T03:54:01.529Z,20.33
2018-01-08T03:56:29.096Z,21.75
2018-01-08T03:58:56.769Z,19.55
2018-01-08T04:01:27.535Z,20.65
2018-01-08T04:03:55.126Z,19.98
2018-01-08T04:06:23.461Z,20.80
2018-01-08T04:08:51.080Z,20.55
2018-01-08T04:11:18.747Z,20.12
2018-01-08T04:13:46.367Z,20.85
2018-01-08T04:16:13.944Z,21.20
2018-01-08T04:18:42.324Z,20.83
2018-01-08T04:21:10.675Z,19.73
2018-01-08T04:23:38.313Z,20.30
2018-01-08T04:26:05.888Z,19.95
2018-01-08T04:28:33.480Z,20.25
2018-01-08T04:31:01.879Z,19.85
2018-01-08T04:33:29.521Z,21.02
2018-01-08T04:35:57.897Z,23.12
2018-01-08T04:38:26.305Z,21.02
2018-01-08T04:40:53.879Z,20.12
2018-01-08T04:43:21.501Z,22.08
2018-01-08T04:45:49.842Z,21.85
2018-01-08T04:48:17.437Z,21.35
2018-01-08T04:50:45.189Z,23.05
2018-01-08T04:53:12.760Z,20.98
2018-01-08T04:55:40.381Z,20.35
2018-01-08T04:58:08.035Z,21.65
2018-01-08T05:00:35.604Z,22.05
2018-01-08T05:03:03.264Z,20.48
2018-01-08T05:05:30.865Z,22.17
2018-01-08T05:07:58.491Z,21.30
2018-01-08T05:10:26.079Z,20.20
2018-01-08T05:12:53.682Z,19.55
2018-01-08T05:15:21.300Z,20.90
2018-01-08T05:17:49.078Z,21.37
2018-01-08T05:20:17.505Z,21.02
2018-01-08T05:22:45.140Z,21.40
2018-01-08T05:25:12.811Z,22.27
2018-01-08T05:27:40.450Z,20.77
2018-01-08T05:30:08.864Z,20.20
2018-01-08T05:32:36.497Z,24.17
2018-01-08T05:35:04.083Z,22.83
2018-01-08T05:37:31.666Z,22.30
2018-01-08T05:39:59.270Z,22.30
2018-01-08T05:42:27.633Z,23.20
2018-01-08T05:44:55.283Z,22.95
2018-01-08T05:47:22.891Z,21.35
2018-01-08T05:49:51.269Z,21.77
2018-01-08T05:52:18.931Z,22.73
2018-01-08T05:54:47.304Z,23.17
2018-01-08T05:57:15.637Z,22.00
2018-01-08T05:59:43.289Z,22.37
2018-01-08T06:02:10.971Z,22.02
2018-01-08T06:04:39.403Z,22.73
2018-01-08T06:07:07.033Z,20.33
2018-01-08T06:09:34.744Z,22.37
2018-01-08T06:12:02.405Z,22.42
2018-01-08T06:14:30.025Z,20.80
2018-01-08T06:16:57.586Z,22.75
2018-01-08T06:19:25.978Z,23.67
2018-01-08T06:21:54.409Z,22.20
2018-01-08T06:24:22.074Z,22.45
2018-01-08T06:26:49.701Z,24.92
2018-01-08T06:29:17.319Z,22.67
2018-01-08T06:31:44.946Z,21.80
2018-01-08T06:34:12.538Z,21.25
2018-01-08T06:36:40.180Z,23.70
2018-01-08T06:39:07.761Z,21.00
2018-01-08T06:41:35.381Z,23.87
2018-01-08T06:44:03.018Z,23.42
2018-01-08T06:46:30.608Z,23.02
2018-01-08T06:48:58.277Z,22.17
2018-01-08T06:51:25.882Z,22.52
2018-01-08T06:53:53.490Z,21.12
2018-01-08T06:56:21.946Z,22.15
2018-01-08T06:58:49.793Z,21.45
2018-01-08T07:01:17.436Z,21.08
2018-01-08T07:03:45.023Z,21.17
2018-01-08T07:06:14.587Z,21.62
2018-01-08T07:08:42.170Z,20.62
2018-01-08T07:11:09.790Z,21.17
2018-01-08T07:13:37.436Z,21.90
2018-01-08T07:16:05.981Z,20.98
2018-01-08T07:18:34.431Z,19.80
2018-01-08T07:21:02.102Z,22.50
2018-01-08T07:23:29.767Z,20.20
2018-01-08T07:25:57.615Z,22.00
2018-01-08T07:28:25.244Z,23.50
2018-01-08T07:30:53.587Z,22.58
2018-01-08T07:33:21.258Z,21.00
2018-01-08T07:36:00.371Z,20.35
2018-01-08T07:38:28.363Z,21.05
2018-01-08T07:40:56.849Z,22.85
2018-01-08T07:43:26.150Z,22.30
2018-01-08T07:45:55.026Z,21.77
2018-01-08T07:48:36.115Z,26.60
2018-01-08T07:51:07.379Z,22.05
2018-01-08T07:53:34.966Z,22.13
2018-01-08T07:56:03.796Z,22.55
2018-01-08T07:58:32.230Z,22.10
2018-01-08T08:00:59.850Z,20.98
2018-01-08T08:03:27.594Z,21.58
2018-01-08T08:05:55.242Z,19.83
2018-01-08T08:08:23.686Z,21.77
2018-01-08T08:10:53.029Z,21.05
2018-01-08T08:13:21.361Z,21.35
2018-01-08T08:15:49.425Z,21.60
2018-01-08T08:18:18.059Z,20.58
2018-01-08T08:20:46.932Z,24.00
2018-01-08T08:23:15.919Z,23.80
2018-01-08T08:25:44.826Z,20.45
2018-01-08T08:28:12.874Z,22.52
2018-01-08T08:30:41.163Z,19.90
2018-01-08T08:33:09.563Z,22.60
2018-01-08T08:35:38.034Z,22.15
2018-01-08T08:38:06.002Z,20.92
2018-01-08T08:40:34.228Z,21.23
2018-01-08T08:43:02.552Z,22.95
2018-01-08T08:45:30.716Z,21.58
2018-01-08T08:47:59.566Z,26.20
2018-01-08T08:50:28.543Z,21.33
2018-01-08T08:52:57.746Z,20.92
2018-01-08T08:55:25.606Z,22.10
2018-01-08T08:57:54.372Z,20.12
2018-01-08T09:00:23.450Z,22.62
2018-01-08T09:02:54.018Z,21.73
2018-01-08T09:05:21.769Z,18.95
2018-01-08T09:07:49.544Z,20.62
2018-01-08T09:10:17.422Z,19.05
2018-01-08T09:12:48.188Z,21.23
2018-01-08T09:15:15.928Z,20.75
2018-01-08T09:17:43.658Z,19.75
2018-01-08T09:20:11.517Z,20.02
2018-01-08T09:22:39.274Z,20.90
2018-01-08T09:25:07.079Z,19.92
2018-01-08T09:27:34.798Z,20.65
2018-01-08T09:30:03.466Z,25.65
2018-01-08T09:32:31.133Z,18.95
2018-01-08T09:34:59.818Z,20.88
2018-01-08T09:37:27.638Z,18.08
2018-01-08T09:39:56.002Z,18.50
2018-01-08T09:42:23.733Z,19.92
2018-01-08T09:44:52.410Z,19.70
2018-01-08T09:47:20.355Z,18.67
2018-01-08T09:49:48.026Z,18.70
2018-01-08T09:52:15.662Z,20.23
2018-01-08T09:54:43.365Z,19.25
2018-01-08T09:57:11.105Z,18.70
2018-01-08T09:59:38.783Z,18.50
2018-01-08T10:02:07.350Z,17.62
2018-01-08T10:04:46.742Z,16.70
2018-01-08T10:07:26.212Z,17.60
2018-01-08T10:10:06.427Z,17.75
2018-01-08T10:12:46.927Z,18.80
2018-01-08T10:15:26.456Z,17.45
2018-01-08T10:18:06.345Z,18.50
2018-01-08T10:20:33.984Z,17.20
2018-01-08T10:23:01.694Z,18.55
2018-01-08T10:25:29.381Z,21.05
2018-01-08T10:27:57.734Z,20.08
2018-01-08T10:30:26.138Z,19.05
2018-01-08T10:32:54.510Z,19.40
2018-01-08T10:35:25.214Z,18.85
2018-01-08T10:37:52.857Z,17.37
2018-01-08T10:40:20.838Z,19.80
2018-01-08T10:42:54.146Z,17.67
2018-01-08T10:45:27.754Z,15.32
2018-01-08T10:50:41.438Z,16.98
2018-01-08T10:53:10.722Z,15.05
2018-01-08T10:55:39.124Z,17.08
2018-01-08T10:58:06.806Z,16.67
2018-01-08T11:00:34.500Z,15.23
2018-01-08T11:03:07.910Z,14.93
2018-01-08T11:05:35.561Z,14.02
2018-01-08T11:08:03.392Z,15.55
2018-01-08T11:13:04.265Z,15.13
2018-01-08T11:15:32.255Z,16.48
2018-01-08T11:17:59.988Z,15.40
2018-01-08T11:20:27.613Z,15.93
2018-01-08T11:22:55.956Z,16.40
2018-01-08T11:25:23.603Z,14.57
2018-01-08T11:27:51.392Z,13.57
2018-01-08T11:30:19.038Z,15.13
2018-01-08T11:32:46.654Z,14.73
2018-01-08T11:35:14.338Z,16.25
2018-01-08T11:37:41.943Z,14.50
2018-01-08T11:40:09.771Z,16.40
2018-01-08T11:42:41.368Z,12.95
2018-01-08T11:45:09.039Z,13.60
2018-01-08T11:47:37.173Z,13.23
2018-01-08T11:50:04.938Z,13.68
2018-01-08T11:52:32.530Z,12.35
2018-01-08T11:55:02.481Z,13.55
2018-01-08T11:57:42.502Z,13.75
2018-01-08T12:00:28.617Z,12.55
2018-01-08T12:02:56.961Z,13.32
2018-01-08T12:05:24.669Z,12.85
2018-01-08T12:07:52.367Z,13.73
2018-01-08T12:10:20.003Z,13.40
2018-01-08T12:12:47.708Z,13.02
2018-01-08T12:15:15.375Z,13.55
2018-01-08T12:17:43.056Z,14.13
2018-01-08T12:20:18.549Z,13.93
2018-01-08T12:22:46.199Z,11.98
2018-01-08T12:25:14.562Z,13.05
2018-01-08T12:27:42.954Z,12.20
2018-01-08T12:30:10.652Z,12.15
2018-01-08T12:32:38.255Z,13.43
2018-01-08T12:35:05.956Z,12.35
2018-01-08T12:37:34.363Z,12.27
2018-01-08T12:40:02.064Z,12.45
2018-01-08T12:42:29.810Z,12.15
2018-01-08T12:44:58.408Z,12.40
2018-01-08T12:47:26.640Z,11.85
2018-01-08T12:49:54.496Z,12.88
2018-01-08T12:52:22.726Z,12.05
2018-01-08T12:54:57.863Z,13.15
2018-01-08T12:57:30.008Z,11.60
2018-01-08T12:59:58.339Z,11.70
2018-01-08T13:02:26.117Z,12.00
2018-01-08T13:04:54.480Z,13.52
2018-01-08T13:07:27.271Z,11.23
2018-01-08T13:09:55.163Z,13.30
2018-01-08T13:12:23.949Z,11.35
2018-01-08T13:14:53.404Z,11.80
2018-01-08T13:17:21.177Z,13.38
2018-01-08T13:19:48.765Z,11.95
2018-01-08T13:22:16.718Z,11.80
2018-01-08T13:24:45.308Z,11.20
2018-01-08T13:27:13.039Z,13.32
2018-01-08T13:29:40.722Z,11.05
2018-01-08T13:32:09.162Z,13.48
2018-01-08T13:34:36.932Z,10.98
2018-01-08T13:37:05.643Z,12.18
2018-01-08T13:39:33.458Z,10.98
2018-01-08T13:42:01.193Z,12.50
2018-01-08T13:44:29.634Z,11.82
2018-01-08T13:46:57.519Z,11.90
2018-01-08T13:49:25.987Z,12.25
2018-01-08T13:51:53.826Z,12.13
2018-01-08T13:54:21.934Z,10.52
2018-01-08T13:56:49.759Z,12.63
2018-01-08T13:59:17.447Z,11.00
2018-01-08T14:01:45.526Z,11.30
2018-01-08T14:04:13.219Z,11.43
2018-01-08T14:06:41.749Z,11.93
2018-01-08T14:09:09.728Z,10.35
2018-01-08T14:11:37.402Z,10.50
2018-01-08T14:14:05.795Z,13.38
2018-01-08T14:16:33.489Z,12.43
2018-01-08T14:19:01.371Z,10.85
2018-01-08T14:21:29.247Z,12.50
2018-01-08T14:23:57.006Z,10.80
2018-01-08T14:26:28.693Z,11.90
2018-01-08T14:28:58.101Z,12.40
2018-01-08T14:31:25.965Z,12.10
2018-01-08T14:33:53.785Z,11.90
2018-01-08T14:36:21.560Z,12.93
2018-01-08T14:38:50.087Z,11.12
2018-01-08T14:41:18.161Z,10.70
2018-01-08T14:43:45.926Z,11.15
2018-01-08T14:46:18.454Z,11.20
2018-01-08T14:48:46.198Z,11.93
2018-01-08T14:51:14.747Z,12.75
2018-01-08T14:53:42.407Z,12.18
2018-01-08T14:56:11.109Z,11.30
2018-01-08T14:58:38.844Z,11.48
2018-01-08T15:01:06.502Z,11.02
2018-01-08T15:03:34.277Z,10.93
2018-01-08T15:06:01.931Z,12.20
2018-01-08T15:08:30.689Z,12.25
2018-01-08T15:10:59.245Z,11.80
2018-01-08T15:13:26.915Z,11.15
2018-01-08T15:15:54.671Z,10.20
2018-01-08T15:18:22.404Z,11.60
2018-01-08T15:20:50.096Z,12.32
2018-01-08T15:23:18.033Z,11.12
2018-01-08T15:25:45.766Z,9.65
2018-01-08T15:28:13.414Z,11.15
2018-01-08T15:30:43.502Z,11.27
2018-01-08T15:33:12.517Z,12.15
2018-01-08T15:35:41.008Z,11.35
2018-01-08T15:38:08.798Z,11.50
2018-01-08T15:40:36.370Z,13.48
2018-01-08T15:43:04.037Z,11.50
2018-01-08T15:45:31.766Z,12.50
2018-01-08T15:48:00.914Z,11.98
2018-01-08T15:50:29.306Z,12.70
2018-01-08T15:52:58.958Z,11.65
2018-01-08T15:55:27.052Z,11.82
2018-01-08T15:57:55.888Z,12.20
2018-01-08T16:00:25.318Z,11.20
2018-01-08T16:02:54.354Z,12.18
2018-01-08T16:05:22.484Z,11.23
2018-01-08T16:07:50.555Z,10.75
2018-01-08T16:10:19.881Z,11.95
2018-01-08T16:12:47.810Z,12.77
2018-01-08T16:15:16.776Z,12.05
2018-01-08T16:17:44.803Z,10.88
2018-01-08T16:20:12.915Z,12.63
2018-01-08T16:22:40.989Z,12.30
2018-01-08T16:25:08.902Z,11.52
2018-01-08T16:27:36.851Z,11.18
2018-01-08T16:30:10.408Z,11.30
2018-01-08T16:32:40.542Z,10.20
2018-01-08T16:35:09.139Z,11.20
2018-01-08T16:37:37.196Z,11.27
2018-01-08T16:40:04.862Z,11.20
2018-01-08T16:42:32.465Z,12.70
2018-01-08T16:45:00.932Z,12.80
2018-01-08T16:47:28.626Z,11.32
2018-01-08T16:49:56.247Z,12.10
2018-01-08T16:52:23.846Z,12.98
2018-01-08T16:54:52.206Z,11.32
2018-01-08T16:57:19.798Z,12.07
2018-01-08T16:59:48.260Z,11.43
2018-01-08T17:02:16.676Z,12.27
2018-01-08T17:04:44.304Z,10.38
2018-01-08T17:07:14.735Z,10.57
2018-01-08T17:09:43.261Z,11.40
2018-01-08T17:12:10.833Z,12.23
2018-01-08T17:14:38.497Z,11.00
2018-01-08T17:17:09.757Z,11.57
2018-01-08T17:19:41.103Z,11.38
2018-01-08T17:22:11.763Z,10.65
2018-01-08T17:24:41.247Z,10.90
2018-01-08T17:27:10.960Z,11.65
2018-01-08T17:29:40.690Z,12.37
2018-01-08T17:32:10.469Z,10.38
2018-01-08T17:34:40.564Z,10.95
2018-01-08T17:37:10.283Z,11.40
2018-01-08T17:39:40.917Z,12.50
2018-01-08T17:42:10.783Z,11.50
2018-01-08T17:44:41.431Z,11.75
2018-01-08T17:47:11.921Z,12.20
2018-01-08T17:49:41.620Z,11.73
2018-01-08T17:52:12.474Z,12.15
2018-01-08T17:54:43.017Z,12.07
2018-01-08T17:57:12.695Z,11.50
2018-01-08T17:59:42.414Z,11.90
2018-01-08T18:02:12.959Z,12.45
2018-01-08T18:04:43.558Z,11.27
2018-01-08T18:07:14.185Z,12.77
2018-01-08T18:09:43.642Z,11.80
2018-01-08T18:12:13.865Z,12.60
2018-01-08T18:14:44.223Z,11.38
2018-01-08T18:17:13.744Z,11.75
2018-01-08T18:19:43.250Z,11.43
2018-01-08T18:22:12.726Z,11.27
2018-01-08T18:24:42.410Z,12.50
2018-01-08T18:27:12.105Z,11.32
2018-01-08T18:29:41.590Z,12.52
2018-01-08T18:32:12.000Z,12.25
2018-01-08T18:34:42.004Z,11.32
2018-01-08T18:37:11.476Z,10.70
2018-01-08T18:39:41.725Z,11.32
2018-01-08T18:42:11.068Z,11.82
2018-01-08T18:44:39.923Z,12.05
2018-01-08T18:47:09.345Z,12.52
2018-01-08T18:49:38.032Z,11.60
2018-01-08T18:52:06.850Z,13.60
2018-01-08T18:54:36.295Z,12.73
2018-01-08T18:57:06.541Z,12.90
2018-01-08T18:59:36.040Z,12.40
2018-01-08T19:02:05.414Z,13.05
2018-01-08T19:04:35.605Z,13.82
2018-01-08T19:07:04.957Z,12.18
2018-01-08T19:09:32.605Z,14.70
2018-01-08T19:12:00.290Z,14.73
2018-01-08T19:14:27.923Z,12.07
2018-01-08T19:16:55.607Z,12.30
2018-01-08T19:19:23.182Z,14.93
2018-01-08T19:21:50.831Z,12.98
2018-01-08T19:24:18.470Z,13.52
2018-01-08T19:26:46.090Z,13.43
2018-01-08T19:29:13.728Z,14.80
2018-01-08T19:31:41.466Z,13.43
2018-01-08T19:34:09.820Z,13.35
2018-01-08T19:36:37.537Z,14.75
2018-01-08T19:39:05.169Z,12.98
2018-01-08T19:41:32.783Z,11.75
2018-01-08T19:44:00.345Z,14.45
2018-01-08T19:46:27.977Z,12.40
2018-01-08T19:48:55.551Z,15.48
2018-01-08T19:51:23.152Z,14.25
2018-01-08T19:53:50.782Z,14.30
2018-01-08T19:56:18.364Z,13.70
2018-01-08T19:58:45.973Z,13.80
2018-01-08T20:01:13.658Z,13.57
2018-01-08T20:03:41.226Z,13.27
2018-01-08T20:06:08.802Z,13.90
2018-01-08T20:08:36.432Z,13.90
2018-01-08T20:11:04.123Z,13.32
2018-01-08T20:13:31.753Z,13.60
2018-01-08T20:15:59.359Z,13.55
2018-01-08T20:18:26.982Z,14.57
2018-01-08T20:20:54.549Z,13.50
2018-01-08T20:23:22.182Z,14.10
2018-01-08T20:25:49.848Z,14.75
2018-01-08T20:28:18.220Z,14.63
2018-01-08T20:30:46.572Z,13.82
2018-01-08T20:33:14.278Z,15.27
2018-01-08T20:35:42.001Z,14.30
2018-01-08T20:38:10.236Z,13.98
2018-01-08T20:40:37.889Z,12.82
2018-01-08T20:43:05.495Z,13.70
2018-01-08T20:45:33.302Z,12.48
2018-01-08T20:48:00.937Z,14.82
2018-01-08T20:50:28.546Z,13.10
2018-01-08T20:52:56.137Z,12.98
2018-01-08T20:55:23.755Z,14.07
2018-01-08T20:57:51.420Z,13.45
2018-01-08T21:00:19.084Z,13.85
2018-01-08T21:02:51.416Z,13.70
2018-01-08T21:05:19.069Z,14.60
2018-01-08T21:07:46.729Z,14.40
2018-01-08T21:10:14.332Z,13.55
2018-01-08T21:12:41.966Z,14.50
2018-01-08T21:15:10.313Z,13.50
2018-01-08T21:17:38.015Z,13.75
2018-01-08T21:20:06.449Z,14.10
2018-01-08T21:22:34.111Z,15.25
2018-01-08T21:25:01.704Z,15.13
2018-01-08T21:27:29.527Z,14.60
2018-01-08T21:29:57.112Z,14.57
2018-01-08T21:32:24.740Z,13.20
2018-01-08T21:34:52.337Z,13.50
2018-01-08T21:37:19.964Z,13.35
2018-01-08T21:39:47.586Z,13.35
2018-01-08T21:42:15.210Z,14.45
2018-01-08T21:44:42.827Z,14.65
2018-01-08T21:47:10.397Z,14.45
2018-01-08T21:49:38.033Z,15.00
2018-01-08T21:52:05.609Z,13.77
2018-01-08T21:54:33.225Z,14.18
2018-01-08T21:57:00.904Z,14.38
2018-01-08T21:59:28.470Z,14.52
2018-01-08T22:01:56.093Z,14.77
2018-01-08T22:04:23.758Z,14.20
2018-01-08T22:06:52.078Z,16.15
2018-01-08T22:09:19.716Z,14.18
2018-01-08T22:11:47.373Z,15.48
2018-01-08T22:14:15.776Z,16.08
2018-01-08T22:16:43.394Z,16.40
2018-01-08T22:19:10.970Z,14.50
2018-01-08T22:21:38.623Z,15.80
2018-01-08T22:24:06.265Z,14.35
2018-01-08T22:26:33.917Z,16.37
2018-01-08T22:29:02.274Z,14.70
2018-01-08T22:31:29.921Z,15.70
2018-01-08T22:33:57.527Z,15.40
2018-01-08T22:36:25.152Z,14.60
2018-01-08T22:38:52.769Z,15.35
2018-01-08T22:41:20.429Z,16.15
2018-01-08T22:43:48.005Z,15.88
2018-01-08T22:46:15.619Z,14.32
2018-01-08T22:48:44.005Z,14.18
2018-01-08T22:51:12.420Z,17.58
2018-01-08T22:53:40.013Z,17.45
2018-01-08T22:56:07.694Z,15.00
2018-01-08T22:58:36.062Z,16.42
2018-01-08T23:01:03.732Z,16.33
2018-01-08T23:03:31.324Z,15.70
2018-01-08T23:05:59.035Z,17.62
2018-01-08T23:08:26.621Z,16.15
2018-01-08T23:10:54.338Z,15.30
2018-01-08T23:13:21.952Z,15.38
2018-01-08T23:15:50.433Z,15.00
2018-01-08T23:18:18.127Z,16.48
2018-01-08T23:20:45.773Z,16.77
2018-01-08T23:23:13.440Z,16.27
2018-01-08T23:25:41.063Z,15.57
2018-01-08T23:28:08.637Z,15.05
2018-01-08T23:30:36.277Z,17.00
2018-01-08T23:33:03.927Z,16.33
2018-01-08T23:35:31.579Z,16.48
2018-01-08T23:37:59.167Z,16.92
2018-01-08T23:40:26.740Z,16.65
2018-01-08T23:42:54.386Z,16.52
2018-01-08T23:45:21.961Z,15.82
2018-01-08T23:47:49.554Z,17.60
2018-01-08T23:50:17.179Z,16.35
2018-01-08T23:52:44.806Z,16.73
2018-01-08T23:55:12.372Z,18.00
2018-01-08T23:57:40.319Z,16.50
